Time;durP1;ratioP1;P1;durP2;ratioP2;P2;SDS_P1;SDS_P2;PMS_P1;PMS_P2;Temp;Humidity;BMP_temperature;BMP_pressure;BME280_temperature;BME280_humidity;BME280_pressure;Samples;Min_cycle;Max_cycle;Signal;HPM_P1;HPM_P2
2023/06/03 00:01:19;;;;;;;1.83;0.47;;;;;;;10.48;66.62;102201.59;5116976;28;20087;-67
2023/06/03 00:03:45;;;;;;;1.20;0.40;;;;;;;10.63;66.63;102225.16;5116565;28;20028;-67
2023/06/03 00:06:12;;;;;;;0.70;0.40;;;;;;;10.62;67.01;102224.34;5115941;28;20038;-66
2023/06/03 00:08:39;;;;;;;1.05;0.40;;;;;;;10.58;67.08;102217.59;5116663;28;20043;-66
2023/06/03 00:11:05;;;;;;;1.05;0.50;;;;;;;10.56;67.26;102220.47;5116628;28;20081;-66
2023/06/03 00:13:30;;;;;;;0.95;0.40;;;;;;;10.58;67.87;102214.91;5114324;28;20019;-66
2023/06/03 00:15:56;;;;;;;0.60;0.30;;;;;;;10.63;67.61;102214.41;5115225;28;20107;-66
2023/06/03 00:18:21;;;;;;;1.38;0.38;;;;;;;10.67;68.02;102221.16;5116725;28;20031;-67
2023/06/03 00:20:47;;;;;;;0.50;0.40;;;;;;;10.67;68.08;102205.84;5123513;28;20056;-66
2023/06/03 00:23:17;;;;;;;0.80;0.47;;;;;;;10.53;68.79;102182.28;5127305;28;20101;-66
2023/06/03 00:25:42;;;;;;;0.93;0.30;;;;;;;10.61;69.23;102206.50;5118624;28;20038;-65
2023/06/03 00:28:08;;;;;;;1.73;0.45;;;;;;;10.58;69.34;102207.66;5115249;28;20035;-66
2023/06/03 00:30:34;;;;;;;1.30;0.40;;;;;;;10.54;69.95;102205.47;5115231;28;20068;-66
2023/06/03 00:33:00;;;;;;;0.65;0.35;;;;;;;10.39;69.81;102189.13;5114583;28;20035;-66
2023/06/03 00:35:25;;;;;;;0.70;0.45;;;;;;;10.47;70.56;102209.84;5115078;28;20057;-66
2023/06/03 00:37:51;;;;;;;1.50;0.60;;;;;;;10.45;70.58;102201.91;5095445;28;20035;-66
2023/06/03 00:40:17;;;;;;;1.92;0.70;;;;;;;10.48;70.41;102203.44;5111573;28;20035;-66
2023/06/03 00:42:42;;;;;;;1.13;0.63;;;;;;;10.52;70.57;102202.09;5114380;28;20077;-66
2023/06/03 00:45:08;;;;;;;1.27;0.90;;;;;;;10.57;71.48;102199.78;5098335;28;20035;-66
2023/06/03 00:47:33;;;;;;;2.88;0.95;;;;;;;10.57;71.00;102206.00;5118149;28;20038;-67
2023/06/03 00:49:59;;;;;;;2.63;1.00;;;;;;;10.55;71.32;102205.31;5120753;28;20039;-67
2023/06/03 00:52:26;;;;;;;2.03;0.90;;;;;;;10.51;72.00;102198.56;5119431;28;20024;-66
2023/06/03 00:54:52;;;;;;;2.25;1.00;;;;;;;10.45;71.91;102193.84;5120675;28;20055;-66
2023/06/03 00:57:20;;;;;;;3.22;1.30;;;;;;;10.41;71.82;102194.34;5118834;28;20028;-66
2023/06/03 00:59:46;;;;;;;2.13;1.00;;;;;;;10.44;72.04;102204.78;5120563;28;20054;-66
2023/06/03 01:02:14;;;;;;;2.28;1.23;;;;;;;10.46;72.18;102197.38;5118711;28;20085;-66
2023/06/03 01:04:42;;;;;;;2.67;1.33;;;;;;;10.42;72.18;102187.94;5118703;28;20044;-66
2023/06/03 01:07:32;;;;;;;2.22;1.25;;;;;;;10.54;72.44;102202.78;5119089;28;20035;-66
2023/06/03 01:10:18;;;;;;;1.65;0.90;;;;;;;10.48;72.51;102206.97;5118955;28;20457;-66
2023/06/03 01:12:50;;;;;;;1.88;0.90;;;;;;;10.67;72.21;102208.53;5118527;28;20278;-66
2023/06/03 01:15:23;;;;;;;2.35;0.80;;;;;;;10.73;72.24;102204.34;5122120;28;20020;-67
2023/06/03 01:17:52;;;;;;;1.67;0.80;;;;;;;10.80;72.73;102206.22;5127708;28;20026;-66
2023/06/03 01:20:19;;;;;;;3.10;0.70;;;;;;;10.70;72.49;102207.38;5119635;28;20026;-66
2023/06/03 01:22:49;;;;;;;2.88;0.90;;;;;;;10.64;72.48;102200.78;5119683;27;20047;-66
2023/06/03 01:25:16;;;;;;;1.75;0.75;;;;;;;10.49;72.58;102202.44;5119079;28;20043;-66
2023/06/03 01:27:48;;;;;;;1.80;0.75;;;;;;;10.53;72.86;102214.56;5119239;28;20431;-66
2023/06/03 01:30:16;;;;;;;2.33;0.82;;;;;;;10.46;73.32;102210.84;5118786;28;20042;-66
2023/06/03 01:32:44;;;;;;;2.53;0.80;;;;;;;10.35;72.62;102207.44;5119607;28;20039;-66
2023/06/03 01:35:11;;;;;;;2.17;0.95;;;;;;;10.32;73.14;102212.31;5119295;28;20102;-66
2023/06/03 01:37:37;;;;;;;2.97;1.00;;;;;;;10.28;73.31;102209.09;5119269;27;20024;-66
2023/06/03 01:40:05;;;;;;;3.35;1.20;;;;;;;10.31;73.53;102210.63;5119772;28;20035;-66
2023/06/03 01:42:30;;;;;;;1.20;0.80;;;;;;;10.30;73.39;102198.19;5118409;28;20023;-66
2023/06/03 01:45:01;;;;;;;3.33;1.05;;;;;;;10.41;73.31;102205.13;5118263;28;20085;-66
2023/06/03 01:47:27;;;;;;;1.50;0.90;;;;;;;10.44;73.92;102204.78;5118297;28;20038;-66
2023/06/03 01:49:55;;;;;;;3.15;1.10;;;;;;;10.50;73.92;102204.13;5119491;28;20107;-67
2023/06/03 01:52:21;;;;;;;6.70;1.20;;;;;;;10.54;73.73;102206.31;5118725;28;20068;-66
2023/06/03 01:54:46;;;;;;;2.60;1.02;;;;;;;10.59;74.27;102208.50;5101120;28;20023;-66
2023/06/03 01:57:12;;;;;;;3.55;1.17;;;;;;;10.64;74.53;102206.19;5119337;28;20023;-66
2023/06/03 01:59:37;;;;;;;2.65;0.90;;;;;;;10.67;75.03;102203.16;5117173;28;20023;-66
2023/06/03 02:02:03;;;;;;;2.53;1.20;;;;;;;10.68;74.79;102202.13;5117459;28;20030;-66
2023/06/03 02:04:28;;;;;;;1.83;1.10;;;;;;;10.67;75.05;102200.47;5120729;28;20038;-66
2023/06/03 02:06:56;;;;;;;2.85;0.95;;;;;;;10.65;75.62;102190.88;5126010;28;20125;-66
2023/06/03 02:09:22;;;;;;;2.33;1.08;;;;;;;10.63;75.92;102193.75;5114221;28;20496;-66
2023/06/03 02:11:59;;;;;;;3.30;0.90;;;;;;;10.63;76.33;102193.75;5117084;28;20016;-66
2023/06/03 02:14:27;;;;;;;2.95;1.05;;;;;;;10.62;76.40;102199.28;5117722;28;20020;-66
2023/06/03 02:16:55;;;;;;;3.33;1.10;;;;;;;10.63;76.09;102192.88;5116376;28;20028;-66
2023/06/03 02:19:25;;;;;;;1.85;1.10;;;;;;;10.62;76.43;102183.94;5115453;28;20027;-66
2023/06/03 02:21:52;;;;;;;2.10;1.00;;;;;;;10.61;76.93;102184.13;5118423;28;20036;-66
2023/06/03 02:24:18;;;;;;;3.15;1.00;;;;;;;10.60;76.99;102186.00;5118719;28;20047;-66
2023/06/03 02:26:52;;;;;;;2.40;1.17;;;;;;;10.65;76.97;102190.88;5117391;28;20036;-66
2023/06/03 02:29:27;;;;;;;4.22;1.80;;;;;;;10.67;77.52;102183.47;5118718;28;20027;-66
2023/06/03 02:31:57;;;;;;;2.83;1.25;;;;;;;10.71;77.83;102195.59;5117154;28;20084;-66
2023/06/03 02:34:23;;;;;;;2.55;1.23;;;;;;;10.71;77.77;102191.03;5117696;28;20019;-66
2023/06/03 02:36:49;;;;;;;1.73;0.90;;;;;;;10.56;77.38;102168.47;5116725;28;20032;-66
2023/06/03 02:39:16;;;;;;;2.20;0.90;;;;;;;10.69;77.86;102192.22;5116960;28;20024;-65
2023/06/03 02:41:43;;;;;;;3.08;0.90;;;;;;;10.70;77.68;102188.53;5118155;28;20057;-66
2023/06/03 02:44:08;;;;;;;1.23;0.80;;;;;;;10.70;78.21;102186.69;5118215;28;20027;-67
2023/06/03 02:46:34;;;;;;;2.03;0.90;;;;;;;10.75;78.34;102188.84;5122552;28;20073;-66
2023/06/03 02:49:08;;;;;;;2.30;1.00;;;;;;;10.80;78.24;102187.34;5118167;28;20543;-66
2023/06/03 02:51:33;;;;;;;1.90;0.88;;;;;;;10.72;77.90;102171.19;5117488;28;20032;-66
2023/06/03 02:53:59;;;;;;;2.38;1.00;;;;;;;10.84;77.93;102195.09;5116506;28;20039;-66
2023/06/03 02:56:25;;;;;;;3.90;0.90;;;;;;;10.87;78.45;102194.78;5116641;28;20039;-66
2023/06/03 02:58:51;;;;;;;3.65;1.00;;;;;;;10.88;78.40;102188.38;5117772;28;20057;-66
2023/06/03 03:01:20;;;;;;;2.10;1.00;;;;;;;10.93;78.55;102188.72;5116301;28;20020;-66
2023/06/03 03:03:46;;;;;;;1.58;1.00;;;;;;;10.81;78.74;102164.81;5117744;28;20031;-67
2023/06/03 03:06:14;;;;;;;3.70;1.15;;;;;;;10.87;78.98;102167.84;5114647;28;20027;-65
2023/06/03 03:08:40;;;;;;;2.38;1.00;;;;;;;11.05;79.32;102190.88;5115261;28;20027;-66
2023/06/03 03:11:06;;;;;;;1.85;0.90;;;;;;;11.12;79.32;102193.75;5116002;28;20032;-66
2023/06/03 03:13:31;;;;;;;2.47;1.10;;;;;;;11.17;79.62;102188.72;5118224;28;20016;-66
2023/06/03 03:15:57;;;;;;;2.10;1.10;;;;;;;11.24;79.64;102189.72;5116960;28;20023;-66
2023/06/03 03:18:22;;;;;;;1.95;1.10;;;;;;;11.31;79.62;102191.72;5117261;28;20023;-66
2023/06/03 03:20:48;;;;;;;1.77;1.10;;;;;;;11.15;79.74;102158.41;5117411;28;20027;-66
2023/06/03 03:23:13;;;;;;;4.03;1.35;;;;;;;11.34;80.47;102186.00;5115983;28;20031;-66
2023/06/03 03:25:40;;;;;;;2.42;1.00;;;;;;;11.41;80.50;102193.22;5116241;28;20043;-66
2023/06/03 03:28:06;;;;;;;6.30;1.10;;;;;;;11.46;80.90;102195.44;5099202;28;20829;-65
2023/06/03 03:30:31;;;;;;;2.22;1.20;;;;;;;11.49;81.41;102200.50;5117406;28;20020;-66
2023/06/03 03:32:58;;;;;;;2.72;1.10;;;;;;;11.52;81.43;102198.28;5123329;28;20024;-66
2023/06/03 03:35:25;;;;;;;2.17;0.90;;;;;;;11.51;81.24;102184.97;5120827;28;20039;-66
2023/06/03 03:38:02;;;;;;;2.28;1.10;;;;;;;11.63;81.90;102207.88;5116031;28;20550;-66
2023/06/03 03:40:28;;;;;;;2.13;0.90;;;;;;;11.66;81.56;102196.75;5115991;28;20047;-66
2023/06/03 03:42:54;;;;;;;3.55;1.00;;;;;;;11.74;81.78;102209.34;5098734;28;20043;-66
2023/06/03 03:45:28;;;;;;;2.10;1.10;;;;;;;11.82;81.65;102208.47;5115819;28;20043;-66
2023/06/03 03:48:00;;;;;;;2.92;1.00;;;;;;;11.90;82.26;102203.09;5115094;28;20027;-65
2023/06/03 03:50:39;;;;;;;1.25;1.10;;;;;;;11.99;82.25;102213.69;5115347;28;20020;-66
2023/06/03 03:53:07;;;;;;;2.47;0.90;;;;;;;12.05;82.14;102195.94;5115191;28;20087;-66
2023/06/03 03:55:39;;;;;;;2.08;1.08;;;;;;;12.13;82.63;102201.31;5116761;28;20019;-66
2023/06/03 03:58:26;;;;;;;1.17;0.80;;;;;;;12.02;82.59;102179.28;5116642;28;20023;-66
2023/06/03 04:00:59;;;;;;;1.65;0.90;;;;;;;12.27;82.25;102212.41;5116996;28;20157;-66
2023/06/03 04:03:25;;;;;;;3.03;0.85;;;;;;;12.22;82.35;102192.19;5115407;28;20208;-66
2023/06/03 04:05:51;;;;;;;1.40;0.90;;;;;;;12.40;82.45;102216.22;5116225;28;20040;-66
2023/06/03 04:08:39;;;;;;;1.42;0.88;;;;;;;12.48;82.80;102217.19;5115359;28;20038;-66
2023/06/03 04:11:15;;;;;;;1.73;0.68;;;;;;;12.51;82.80;102212.25;5115558;28;20020;-66
2023/06/03 04:13:41;;;;;;;1.77;0.75;;;;;;;12.57;82.36;102199.91;5116163;28;20024;-66
2023/06/03 04:16:11;;;;;;;1.35;0.70;;;;;;;12.63;82.51;102208.16;5117263;28;20073;-66
2023/06/03 04:18:41;;;;;;;1.77;0.80;;;;;;;12.67;82.40;102205.94;5125079;28;20027;-71
2023/06/03 04:21:12;;;;;;;1.92;0.63;;;;;;;12.68;82.83;102189.56;5128341;28;20023;-66
2023/06/03 04:23:38;;;;;;;1.20;0.70;;;;;;;12.80;82.72;102205.34;5115529;28;20039;-67
2023/06/03 04:26:04;;;;;;;2.17;0.75;;;;;;;12.83;82.61;102196.88;5098072;28;20363;-66
2023/06/03 04:28:29;;;;;;;1.30;0.43;;;;;;;12.93;82.51;102202.88;5116041;28;20077;-66
2023/06/03 04:30:54;;;;;;;1.50;0.70;;;;;;;13.00;82.79;102209.25;5112811;28;20028;-67
2023/06/03 04:33:20;;;;;;;2.40;0.80;;;;;;;13.07;82.52;102212.06;5116753;28;20046;-67
2023/06/03 04:35:45;;;;;;;1.00;0.52;;;;;;;13.16;82.67;102208.28;5114467;28;20035;-66
2023/06/03 04:38:11;;;;;;;2.03;0.75;;;;;;;13.27;82.86;102210.56;5116968;28;20032;-66
2023/06/03 04:40:37;;;;;;;2.35;0.60;;;;;;;13.39;82.40;102205.56;5116605;28;20073;-66
2023/06/03 04:43:03;;;;;;;3.63;0.60;;;;;;;13.42;82.29;102186.28;5116306;28;20027;-66
2023/06/03 04:45:32;;;;;;;1.38;0.70;;;;;;;13.58;82.29;102205.03;5115316;28;20028;-66
2023/06/03 04:48:01;;;;;;;1.77;0.60;;;;;;;13.74;82.06;102200.47;5097173;28;20428;-66
2023/06/03 04:50:28;;;;;;;1.83;0.68;;;;;;;13.84;81.91;102203.72;5114538;28;20038;-66
2023/06/03 04:52:56;;;;;;;2.05;0.70;;;;;;;13.96;81.88;102194.13;5113035;28;20063;-66
2023/06/03 04:55:22;;;;;;;2.50;0.90;;;;;;;14.16;81.90;102198.97;5114201;28;20073;-66
2023/06/03 04:57:50;;;;;;;1.73;0.80;;;;;;;14.30;81.45;102200.81;5114991;28;20034;-67
2023/06/03 05:00:19;;;;;;;1.83;0.93;;;;;;;14.45;81.35;102203.50;5115859;28;20372;-66
2023/06/03 05:02:54;;;;;;;2.40;0.80;;;;;;;14.59;81.38;102196.38;5130495;28;20077;-68
2023/06/03 05:05:22;;;;;;;2.17;1.15;;;;;;;14.82;81.33;102209.75;5122381;28;20027;-67
2023/06/03 05:07:48;;;;;;;5.13;1.58;;;;;;;14.94;81.18;102203.63;5115890;28;20035;-67
2023/06/03 05:10:13;;;;;;;2.42;1.40;;;;;;;15.10;80.69;102201.69;5098932;28;20156;-67
2023/06/03 05:12:38;;;;;;;2.58;1.13;;;;;;;15.22;80.67;102202.84;5115257;28;20036;-66
2023/06/03 05:15:04;;;;;;;3.90;0.90;;;;;;;15.33;80.52;102199.59;5114244;28;20019;-66
2023/06/03 05:17:30;;;;;;;1.48;0.80;;;;;;;15.47;80.34;102192.41;5113898;28;20027;-67
2023/06/03 05:19:55;;;;;;;2.17;0.88;;;;;;;15.63;79.77;102193.94;5110739;28;20487;-67
2023/06/03 05:22:20;;;;;;;2.30;0.70;;;;;;;15.74;79.74;102196.16;5113901;28;20049;-67
2023/06/03 05:24:46;;;;;;;2.22;0.63;;;;;;;15.88;79.05;102192.47;5115212;28;20071;-67
2023/06/03 05:27:11;;;;;;;1.00;0.60;;;;;;;16.05;78.79;102197.56;5113572;28;20028;-67
2023/06/03 05:29:37;;;;;;;4.38;0.77;;;;;;;16.18;78.67;102194.91;5114116;28;20031;-66
2023/06/03 05:32:02;;;;;;;1.73;0.60;;;;;;;16.36;77.95;102192.50;5118191;28;20061;-67
2023/06/03 05:34:28;;;;;;;1.52;0.52;;;;;;;16.54;77.81;102191.09;5118914;28;20046;-67
2023/06/03 05:36:53;;;;;;;1.08;0.50;;;;;;;16.65;77.24;102194.06;5116907;28;20406;-67
2023/06/03 05:39:19;;;;;;;1.95;0.40;;;;;;;16.79;76.69;102194.09;5117262;28;20077;-67
2023/06/03 05:41:44;;;;;;;1.00;0.50;;;;;;;16.92;76.46;102196.84;5119143;28;20028;-69
2023/06/03 05:44:10;;;;;;;1.77;0.68;;;;;;;17.01;75.89;102194.75;5120198;28;20089;-67
2023/06/03 05:46:35;;;;;;;1.17;0.50;;;;;;;17.14;75.55;102194.75;5120903;28;20091;-68
2023/06/03 05:49:02;;;;;;;3.13;0.40;;;;;;;17.32;74.79;102199.59;5118481;28;20039;-66
2023/06/03 05:51:27;;;;;;;2.15;0.55;;;;;;;17.43;74.03;102184.50;5099746;28;20126;-67
2023/06/03 05:53:53;;;;;;;0.98;0.50;;;;;;;17.81;73.17;102204.56;5099973;28;20040;-67
2023/06/03 05:56:18;;;;;;;1.20;0.50;;;;;;;18.08;72.26;102205.31;5119086;28;20592;-67
2023/06/03 05:58:43;;;;;;;1.50;0.50;;;;;;;18.40;71.29;102212.72;5118123;28;20104;-67
2023/06/03 06:01:09;;;;;;;1.58;0.43;;;;;;;18.58;70.15;102212.84;5118507;28;20033;-67
2023/06/03 06:03:34;;;;;;;1.63;0.50;;;;;;;18.69;68.16;102211.31;5118026;28;20020;-67
2023/06/03 06:06:01;;;;;;;3.22;0.50;;;;;;;18.91;66.61;102215.41;5115989;28;20024;-68
2023/06/03 06:08:27;;;;;;;3.50;0.65;;;;;;;18.96;64.62;102206.56;5114445;28;20367;-68
2023/06/03 06:10:53;;;;;;;0.82;0.50;;;;;;;19.09;63.04;102211.09;5121945;28;20110;-67
2023/06/03 06:13:18;;;;;;;2.75;1.00;;;;;;;19.31;61.92;102198.72;5122683;27;20118;-67
2023/06/03 06:16:04;;;;;;;4.22;0.73;;;;;;;19.23;60.49;102202.56;5118329;28;20063;-67
2023/06/03 06:18:30;;;;;;;1.95;0.85;;;;;;;19.27;59.92;102202.97;5117730;28;20028;-67
2023/06/03 06:20:56;;;;;;;2.55;0.70;;;;;;;19.31;59.20;102197.91;5118702;28;20117;-67
2023/06/03 06:23:22;;;;;;;1.73;0.75;;;;;;;19.38;58.19;102201.41;5118752;28;20027;-67
2023/06/03 06:25:48;;;;;;;3.15;0.77;;;;;;;19.47;56.93;102206.34;5116717;28;20028;-67
2023/06/03 06:28:17;;;;;;;3.17;0.50;;;;;;;19.54;55.81;102189.91;5119663;28;20034;-68
2023/06/03 06:30:44;;;;;;;3.17;0.80;;;;;;;19.75;55.05;102187.84;5117214;28;20106;-69
2023/06/03 06:33:13;;;;;;;2.53;0.63;;;;;;;20.05;54.35;102193.38;5119416;28;20020;-67
2023/06/03 06:35:38;;;;;;;0.98;0.50;;;;;;;20.27;53.43;102191.00;5118204;28;20030;-66
2023/06/03 06:38:03;;;;;;;1.73;0.70;;;;;;;20.48;52.43;102195.97;5100758;28;20122;-68
2023/06/03 06:40:40;;;;;;;4.55;0.80;;;;;;;20.46;51.59;102178.94;5113262;28;20110;-67
2023/06/03 06:43:05;;;;;;;3.15;0.98;;;;;;;20.74;50.97;102181.13;5097852;28;20517;-66
2023/06/03 06:45:35;;;;;;;1.67;0.60;;;;;;;20.35;49.80;102112.22;5101068;28;20383;-66
2023/06/03 06:48:10;;;;;;;1.50;0.80;;;;;;;20.88;48.85;102184.47;5118158;28;20024;-67
2023/06/03 06:50:42;;;;;;;2.13;0.50;;;;;;;21.10;47.78;102176.56;5114444;28;20063;-68
2023/06/03 06:53:08;;;;;;;1.15;0.45;;;;;;;21.08;46.82;102187.72;5117309;28;20076;-66
2023/06/03 06:55:56;;;;;;;1.40;0.52;;;;;;;21.21;44.82;102183.09;5112768;28;20023;-67
2023/06/03 06:58:25;;;;;;;1.95;0.52;;;;;;;20.82;44.54;102150.66;5114777;28;20031;-67
2023/06/03 07:00:51;;;;;;;1.85;0.50;;;;;;;21.16;44.60;102174.75;5114525;28;20039;-67
2023/06/03 07:03:18;;;;;;;0.50;0.40;;;;;;;21.58;43.19;102187.28;5115660;28;20019;-68
2023/06/03 07:05:46;;;;;;;1.33;0.40;;;;;;;21.66;41.80;102177.91;5114032;28;20043;-67
2023/06/03 07:08:11;;;;;;;1.00;0.68;;;;;;;21.37;40.13;102178.88;5115991;28;20088;-68
2023/06/03 07:10:37;;;;;;;0.70;0.43;;;;;;;21.18;39.41;102186.31;5117945;28;20130;-67
2023/06/03 07:13:03;;;;;;;4.07;0.60;;;;;;;21.34;38.99;102181.00;5115852;28;20028;-68
2023/06/03 07:15:29;;;;;;;1.60;0.70;;;;;;;21.66;38.29;102182.56;5117248;28;20027;-68
2023/06/03 07:17:57;;;;;;;2.38;0.55;;;;;;;21.98;38.37;102183.78;5116872;28;20041;-68
2023/06/03 07:20:38;;;;;;;1.83;0.70;;;;;;;21.93;37.17;102183.69;5114205;28;20024;-67
2023/06/03 07:23:12;;;;;;;1.95;0.60;;;;;;;21.78;36.74;102175.94;5117553;28;20042;-68
2023/06/03 07:25:42;;;;;;;3.47;0.70;;;;;;;21.95;36.66;102176.06;5116943;28;20039;-67
2023/06/03 07:28:13;;;;;;;3.08;0.73;;;;;;;22.36;35.99;102176.09;5116851;28;20041;-68
2023/06/03 07:30:40;;;;;;;0.77;0.55;;;;;;;22.28;35.16;102175.41;5119001;27;20062;-70
2023/06/03 07:33:08;;;;;;;1.73;0.70;;;;;;;22.20;34.97;102177.69;5121992;28;20027;-69
2023/06/03 07:35:37;;;;;;;2.28;0.68;;;;;;;22.08;34.40;102171.38;5101836;28;20039;-67
2023/06/03 07:38:03;;;;;;;0.63;0.45;;;;;;;21.96;33.74;102176.91;5116217;28;20027;-68
2023/06/03 07:40:41;;;;;;;4.38;0.70;;;;;;;22.21;32.85;102168.38;5116044;28;20059;-67
2023/06/03 07:43:08;;;;;;;3.28;0.60;;;;;;;22.10;32.61;102166.50;5118058;28;20102;-67
2023/06/03 07:45:36;;;;;;;3.03;0.68;;;;;;;22.16;32.87;102162.81;5116891;28;20049;-67
2023/06/03 07:48:04;;;;;;;1.25;0.60;;;;;;;22.51;33.12;102165.38;5101117;28;20116;-67
2023/06/03 07:50:30;;;;;;;1.42;0.50;;;;;;;21.96;33.00;102158.53;5117314;28;20443;-68
2023/06/03 07:53:01;;;;;;;1.25;0.38;;;;;;;21.50;33.11;102146.59;5118898;28;20030;-67
2023/06/03 07:55:33;;;;;;;2.63;0.90;;;;;;;21.42;33.19;102146.09;5121543;28;20023;-68
2023/06/03 07:57:59;;;;;;;3.13;0.52;;;;;;;21.50;33.33;102157.53;5120836;28;20557;-67
2023/06/03 08:00:24;;;;;;;1.00;0.52;;;;;;;21.69;34.13;102160.13;5123285;28;20043;-68
2023/06/03 08:02:50;;;;;;;1.27;0.50;;;;;;;21.72;34.00;102157.75;5122260;28;20526;-67
2023/06/03 08:05:24;;;;;;;2.88;0.40;;;;;;;21.93;32.99;102159.03;5117539;28;20020;-67
2023/06/03 08:07:49;;;;;;;0.60;0.47;;;;;;;21.71;33.08;102152.50;5113715;28;20027;-67
2023/06/03 08:10:22;;;;;;;1.30;0.65;;;;;;;21.74;33.54;102146.56;5099376;28;20024;-67
2023/06/03 08:12:48;;;;;;;1.73;0.40;;;;;;;21.87;33.17;102160.00;5118467;28;20031;-67
2023/06/03 08:15:28;;;;;;;0.90;0.50;;;;;;;21.87;32.16;102160.00;5117892;28;20493;-67
2023/06/03 08:17:54;;;;;;;1.38;0.60;;;;;;;22.02;32.52;102159.50;5117399;28;20047;-66
2023/06/03 08:20:26;;;;;;;1.13;0.50;;;;;;;21.99;32.53;102163.53;5115936;28;20030;-67
2023/06/03 08:22:53;;;;;;;1.55;0.50;;;;;;;21.77;32.99;102157.03;5113998;28;20020;-67
2023/06/03 08:25:18;;;;;;;2.45;0.60;;;;;;;21.67;33.75;102162.28;5117801;28;20123;-67
2023/06/03 08:27:44;;;;;;;1.13;0.50;;;;;;;21.77;34.11;102165.25;5117680;28;20066;-67
2023/06/03 08:30:12;;;;;;;1.73;0.50;;;;;;;21.74;33.95;102163.00;5118102;28;20474;-67
2023/06/03 08:32:38;;;;;;;2.45;0.60;;;;;;;21.93;34.59;102163.69;5116469;28;20243;-68
2023/06/03 08:35:05;;;;;;;1.70;0.43;;;;;;;22.26;34.06;102160.25;5114489;28;20027;-67
2023/06/03 08:37:32;;;;;;;1.38;0.50;;;;;;;22.31;33.83;102165.00;5114266;28;20501;-67
2023/06/03 08:40:00;;;;;;;0.57;0.50;;;;;;;22.24;33.98;102162.41;5114034;28;20033;-67
2023/06/03 08:42:34;;;;;;;0.95;0.40;;;;;;;22.33;34.14;102160.94;5115093;28;20012;-67
2023/06/03 08:45:06;;;;;;;1.05;0.60;;;;;;;22.17;33.42;102167.22;5098270;28;20024;-67
2023/06/03 08:48:01;;;;;;;0.88;0.40;;;;;;;22.18;33.29;102145.00;5115276;28;20043;-67
2023/06/03 08:50:27;;;;;;;2.45;0.50;;;;;;;22.32;34.35;102163.91;5117094;28;20095;-67
2023/06/03 08:52:54;;;;;;;1.42;0.43;;;;;;;22.12;34.57;102169.81;5116629;28;20076;-67
2023/06/03 08:55:20;;;;;;;1.20;0.50;;;;;;;22.26;34.41;102165.75;5117848;28;20015;-67
2023/06/03 08:58:25;;;;;;;2.45;0.70;;;;;;;22.45;34.30;102164.47;5118098;28;20110;-67
2023/06/03 09:00:56;;;;;;;0.90;0.32;;;;;;;22.42;33.65;102164.13;5020814;28;20057;-67
2023/06/03 09:03:23;;;;;;;1.80;0.50;;;;;;;22.42;33.99;102164.13;5103970;28;20036;-67
2023/06/03 09:05:49;;;;;;;3.83;0.90;;;;;;;22.43;34.83;102155.66;5117430;28;20046;-67
2023/06/03 09:08:17;;;;;;;1.17;0.50;;;;;;;22.68;34.82;102157.19;5119965;28;20020;-67
2023/06/03 09:10:45;;;;;;;1.13;0.50;;;;;;;22.90;34.51;102162.78;5119992;28;20393;-66
2023/06/03 09:13:13;;;;;;;1.13;0.60;;;;;;;22.96;34.69;102154.41;5118341;28;20031;-67
2023/06/03 09:15:41;;;;;;;1.45;0.55;;;;;;;22.98;34.39;102163.25;5099380;28;20385;-67
2023/06/03 09:18:07;;;;;;;1.17;0.60;;;;;;;22.90;34.42;102162.78;5119207;28;20541;-67
2023/06/03 09:20:35;;;;;;;3.63;0.50;;;;;;;22.93;35.28;102149.44;5119043;28;20065;-67
2023/06/03 09:23:01;;;;;;;1.98;0.60;;;;;;;23.10;34.81;102157.66;5119102;28;20038;-68
2023/06/03 09:25:26;;;;;;;1.05;0.60;;;;;;;23.00;34.94;102162.16;5120484;28;20052;-68
2023/06/03 09:27:53;;;;;;;2.35;0.52;;;;;;;23.00;34.56;102152.00;5118200;28;20028;-68
2023/06/03 09:30:18;;;;;;;1.40;0.70;;;;;;;23.03;34.20;102153.44;5119955;28;20031;-68
2023/06/03 09:32:44;;;;;;;0.60;0.50;;;;;;;23.08;33.77;102137.88;5102629;28;20118;-68
2023/06/03 09:35:10;;;;;;;0.75;0.50;;;;;;;23.16;33.88;102148.41;5120267;28;20027;-68
2023/06/03 09:37:35;;;;;;;1.38;0.63;;;;;;;22.93;33.97;102145.84;5120381;28;20088;-68
2023/06/03 09:40:03;;;;;;;1.40;0.43;;;;;;;22.96;34.47;102128.88;5119063;28;20054;-69
2023/06/03 09:42:43;;;;;;;0.90;0.57;;;;;;;22.95;34.32;102150.03;5086847;28;20028;-68
2023/06/03 09:45:28;;;;;;;1.42;0.60;;;;;;;22.86;35.18;102150.66;5121215;28;20073;-68
2023/06/03 09:47:54;;;;;;;1.25;0.50;;;;;;;22.97;35.98;102147.84;5125990;28;20023;-68
2023/06/03 09:50:21;;;;;;;0.63;0.40;;;;;;;23.11;36.51;102148.34;5122535;28;20102;-68
2023/06/03 09:52:46;;;;;;;1.17;0.68;;;;;;;23.13;36.50;102142.59;5121054;28;20031;-68
2023/06/03 09:55:14;;;;;;;0.93;0.60;;;;;;;23.22;36.95;102141.09;5117803;28;20383;-68
2023/06/03 09:57:41;;;;;;;1.60;0.60;;;;;;;23.25;35.70;102140.59;5118014;28;20027;-68
2023/06/03 10:00:11;;;;;;;1.27;0.60;;;;;;;23.41;36.13;102144.38;5116319;28;20023;-68
2023/06/03 10:02:40;;;;;;;2.97;0.50;;;;;;;23.08;36.75;102124.16;5118616;28;20083;-68
2023/06/03 10:05:25;;;;;;;3.03;0.68;;;;;;;23.32;36.11;102146.75;5119250;28;20024;-68
2023/06/03 10:07:51;;;;;;;1.25;0.50;;;;;;;23.15;37.32;102111.06;5120608;28;20102;-68
2023/06/03 10:10:16;;;;;;;1.30;0.43;;;;;;;23.29;36.95;102129.94;5126650;28;20027;-69
2023/06/03 10:12:42;;;;;;;1.20;0.60;;;;;;;23.30;36.66;102126.09;5122279;28;20451;-68
2023/06/03 10:15:08;;;;;;;2.22;0.70;;;;;;;23.29;37.02;102130.78;5085193;28;20080;-66
2023/06/03 10:17:33;;;;;;;2.22;0.73;;;;;;;23.02;36.17;102125.16;5101599;28;20575;-67
2023/06/03 10:19:59;;;;;;;1.50;0.57;;;;;;;23.01;36.72;102128.13;5117776;28;20039;-66
2023/06/03 10:22:26;;;;;;;4.15;0.70;;;;;;;22.90;36.84;102125.19;5116902;28;20545;-67
2023/06/03 10:24:54;;;;;;;4.10;0.77;;;;;;;22.96;37.48;102124.22;5117848;28;20051;-67
2023/06/03 10:27:20;;;;;;;3.22;1.05;;;;;;;23.15;38.04;102132.22;5119481;28;20378;-67
2023/06/03 10:29:52;;;;;;;2.22;0.80;;;;;;;23.24;39.21;102127.94;5101102;28;20036;-67
2023/06/03 10:32:17;;;;;;;2.85;0.80;;;;;;;23.50;38.88;102125.56;5119806;28;20509;-67
2023/06/03 10:34:44;;;;;;;3.15;0.80;;;;;;;23.56;38.60;102132.78;5101596;28;20032;-67
2023/06/03 10:37:12;;;;;;;1.80;0.68;;;;;;;23.59;38.50;102118.53;5119853;27;20030;-67
2023/06/03 10:39:40;;;;;;;2.25;0.70;;;;;;;23.73;37.75;102125.34;5119603;28;20015;-67
2023/06/03 10:42:06;;;;;;;3.42;0.70;;;;;;;23.58;38.11;102117.72;5117933;28;20118;-67
2023/06/03 10:44:32;;;;;;;2.75;0.80;;;;;;;23.63;38.62;102117.78;5100661;28;20032;-67
2023/06/03 10:47:06;;;;;;;3.65;0.70;;;;;;;23.57;38.94;102120.72;5099013;28;20036;-67
2023/06/03 10:49:47;;;;;;;3.10;0.80;;;;;;;23.56;38.91;102116.31;5115387;28;20027;-67
2023/06/03 10:52:49;;;;;;;1.58;0.80;;;;;;;23.60;38.37;102122.94;5118055;28;20393;-66
2023/06/03 10:55:30;;;;;;;2.78;0.75;;;;;;;23.87;38.20;102125.78;5116378;28;20107;-67
2023/06/03 10:58:21;;;;;;;2.65;0.80;;;;;;;23.97;38.03;102117.66;5118776;28;20023;-67
2023/06/03 11:00:52;;;;;;;2.97;1.02;;;;;;;23.73;39.06;102125.34;5111050;28;20040;-66
2023/06/03 11:03:21;;;;;;;1.23;0.57;;;;;;;23.69;39.20;102118.72;5118188;28;20406;-66
2023/06/03 11:05:48;;;;;;;2.80;0.50;;;;;;;23.86;38.14;102116.72;5117728;28;20027;-67
2023/06/03 11:08:34;;;;;;;3.13;0.70;;;;;;;23.90;38.58;102119.78;5116440;28;20035;-67
2023/06/03 11:10:59;;;;;;;1.83;0.80;;;;;;;24.14;38.42;102112.94;5117083;28;20502;-67
2023/06/03 11:13:40;;;;;;;1.77;0.70;;;;;;;24.24;37.81;102109.47;5117212;28;20054;-67
2023/06/03 11:16:06;;;;;;;1.95;0.65;;;;;;;24.13;37.70;102104.94;5119343;28;20023;-68
2023/06/03 11:18:31;;;;;;;3.30;0.77;;;;;;;24.03;37.87;102102.06;5122618;28;20023;-68
2023/06/03 11:20:57;;;;;;;2.22;1.05;;;;;;;23.99;38.05;102088.00;5122390;28;20088;-68
2023/06/03 11:23:41;;;;;;;3.45;0.90;;;;;;;24.09;38.18;102101.03;5118290;28;20038;-67
2023/06/03 11:26:35;;;;;;;1.37;0.57;;;;;;;24.09;37.35;102095.53;5118579;28;20489;-67
2023/06/03 11:29:04;;;;;;;3.13;0.75;;;;;;;24.01;37.66;102098.75;5118139;28;20702;-67
2023/06/03 11:31:32;;;;;;;3.10;0.85;;;;;;;24.25;37.36;102102.84;5116132;28;20481;-70